sensor_id;sensor_type;location;lat;lon;timestamp;P1;durP1;ratioP1;P2;durP2;ratioP2
54683;SDS011;40582;53.100;6.686;2023-04-03T00:00:09;2.35;;;1.48;;
54683;SDS011;40582;53.100;6.686;2023-04-03T00:02:35;3.28;;;1.33;;
54683;SDS011;40582;53.100;6.686;2023-04-03T00:05:01;2.95;;;1.70;;
54683;SDS011;40582;53.100;6.686;2023-04-03T00:07:27;2.30;;;1.15;;
54683;SDS011;40582;53.100;6.686;2023-04-03T00:09:53;2.90;;;1.35;;
54683;SDS011;40582;53.100;6.686;2023-04-03T00:12:18;2.60;;;1.42;;
54683;SDS011;40582;53.100;6.686;2023-04-03T00:14:44;3.00;;;1.38;;
54683;SDS011;40582;53.100;6.686;2023-04-03T00:17:09;5.50;;;1.80;;
54683;SDS011;40582;53.100;6.686;2023-04-03T00:19:35;4.20;;;1.58;;
54683;SDS011;40582;53.100;6.686;2023-04-03T00:22:01;3.53;;;1.30;;
54683;SDS011;40582;53.100;6.686;2023-04-03T00:24:26;2.83;;;1.50;;
54683;SDS011;40582;53.100;6.686;2023-04-03T00:26:52;3.20;;;1.50;;
54683;SDS011;40582;53.100;6.686;2023-04-03T00:29:18;3.55;;;1.45;;
54683;SDS011;40582;53.100;6.686;2023-04-03T00:31:43;3.53;;;1.60;;
54683;SDS011;40582;53.100;6.686;2023-04-03T00:34:10;3.72;;;1.58;;
54683;SDS011;40582;53.100;6.686;2023-04-03T00:36:36;4.10;;;1.55;;
54683;SDS011;40582;53.100;6.686;2023-04-03T00:39:01;4.00;;;1.55;;
54683;SDS011;40582;53.100;6.686;2023-04-03T00:41:27;3.55;;;1.60;;
54683;SDS011;40582;53.100;6.686;2023-04-03T00:43:53;7.45;;;1.77;;
54683;SDS011;40582;53.100;6.686;2023-04-03T00:46:19;4.95;;;2.03;;
54683;SDS011;40582;53.100;6.686;2023-04-03T00:48:45;3.58;;;1.90;;
54683;SDS011;40582;53.100;6.686;2023-04-03T00:51:13;4.20;;;1.70;;
54683;SDS011;40582;53.100;6.686;2023-04-03T00:53:44;4.38;;;1.65;;
54683;SDS011;40582;53.100;6.686;2023-04-03T00:56:15;7.90;;;2.17;;
54683;SDS011;40582;53.100;6.686;2023-04-03T00:58:50;4.13;;;1.40;;
54683;SDS011;40582;53.100;6.686;2023-04-03T01:01:24;5.75;;;2.33;;
54683;SDS011;40582;53.100;6.686;2023-04-03T01:03:51;4.25;;;1.95;;
54683;SDS011;40582;53.100;6.686;2023-04-03T01:06:20;2.67;;;1.45;;
54683;SDS011;40582;53.100;6.686;2023-04-03T01:08:50;5.75;;;1.90;;
54683;SDS011;40582;53.100;6.686;2023-04-03T01:11:16;6.20;;;1.80;;
54683;SDS011;40582;53.100;6.686;2023-04-03T01:13:42;7.25;;;1.98;;
54683;SDS011;40582;53.100;6.686;2023-04-03T01:16:08;4.07;;;1.73;;
54683;SDS011;40582;53.100;6.686;2023-04-03T01:18:34;9.05;;;2.20;;
54683;SDS011;40582;53.100;6.686;2023-04-03T01:26:24;4.75;;;1.95;;
54683;SDS011;40582;53.100;6.686;2023-04-03T01:28:51;9.27;;;2.20;;
54683;SDS011;40582;53.100;6.686;2023-04-03T01:33:50;7.22;;;2.25;;
54683;SDS011;40582;53.100;6.686;2023-04-03T01:36:18;6.03;;;1.92;;
54683;SDS011;40582;53.100;6.686;2023-04-03T01:38:54;5.95;;;2.25;;
54683;SDS011;40582;53.100;6.686;2023-04-03T01:41:21;6.20;;;2.00;;
54683;SDS011;40582;53.100;6.686;2023-04-03T01:43:47;5.65;;;2.40;;
54683;SDS011;40582;53.100;6.686;2023-04-03T01:46:14;5.10;;;2.00;;
54683;SDS011;40582;53.100;6.686;2023-04-03T01:48:41;10.50;;;2.38;;
54683;SDS011;40582;53.100;6.686;2023-04-03T01:51:07;7.68;;;2.20;;
54683;SDS011;40582;53.100;6.686;2023-04-03T01:53:33;7.43;;;2.25;;
54683;SDS011;40582;53.100;6.686;2023-04-03T01:55:58;7.95;;;2.33;;
54683;SDS011;40582;53.100;6.686;2023-04-03T01:58:24;9.32;;;2.50;;
54683;SDS011;40582;53.100;6.686;2023-04-03T02:00:50;9.65;;;2.45;;
54683;SDS011;40582;53.100;6.686;2023-04-03T02:03:17;10.18;;;2.90;;
54683;SDS011;40582;53.100;6.686;2023-04-03T02:05:43;4.18;;;1.90;;
54683;SDS011;40582;53.100;6.686;2023-04-03T02:08:09;5.78;;;2.20;;
54683;SDS011;40582;53.100;6.686;2023-04-03T02:10:35;5.10;;;1.98;;
54683;SDS011;40582;53.100;6.686;2023-04-03T02:13:00;6.72;;;2.28;;
54683;SDS011;40582;53.100;6.686;2023-04-03T02:15:26;8.02;;;2.83;;
54683;SDS011;40582;53.100;6.686;2023-04-03T02:17:52;6.60;;;2.10;;
54683;SDS011;40582;53.100;6.686;2023-04-03T02:20:18;6.28;;;2.20;;
54683;SDS011;40582;53.100;6.686;2023-04-03T02:22:45;5.70;;;2.17;;
54683;SDS011;40582;53.100;6.686;2023-04-03T02:25:10;6.25;;;2.42;;
54683;SDS011;40582;53.100;6.686;2023-04-03T02:27:37;4.50;;;2.40;;
54683;SDS011;40582;53.100;6.686;2023-04-03T02:30:03;7.72;;;2.40;;
54683;SDS011;40582;53.100;6.686;2023-04-03T02:32:30;12.82;;;2.78;;
54683;SDS011;40582;53.100;6.686;2023-04-03T02:34:56;4.47;;;2.20;;
54683;SDS011;40582;53.100;6.686;2023-04-03T02:37:22;3.60;;;2.20;;
54683;SDS011;40582;53.100;6.686;2023-04-03T02:39:47;4.47;;;2.30;;
54683;SDS011;40582;53.100;6.686;2023-04-03T02:42:13;6.35;;;2.50;;
54683;SDS011;40582;53.100;6.686;2023-04-03T02:44:39;5.25;;;2.10;;
54683;SDS011;40582;53.100;6.686;2023-04-03T02:47:05;5.65;;;2.60;;
54683;SDS011;40582;53.100;6.686;2023-04-03T02:49:31;9.07;;;2.55;;
54683;SDS011;40582;53.100;6.686;2023-04-03T02:51:56;8.10;;;2.70;;
54683;SDS011;40582;53.100;6.686;2023-04-03T02:54:22;6.00;;;2.50;;
54683;SDS011;40582;53.100;6.686;2023-04-03T02:56:52;6.45;;;2.55;;
54683;SDS011;40582;53.100;6.686;2023-04-03T02:59:18;5.40;;;2.60;;
54683;SDS011;40582;53.100;6.686;2023-04-03T03:01:44;5.53;;;2.20;;
54683;SDS011;40582;53.100;6.686;2023-04-03T03:04:09;8.02;;;2.58;;
54683;SDS011;40582;53.100;6.686;2023-04-03T03:06:35;6.38;;;2.40;;
54683;SDS011;40582;53.100;6.686;2023-04-03T03:09:01;9.77;;;3.22;;
54683;SDS011;40582;53.100;6.686;2023-04-03T03:11:26;9.40;;;2.45;;
54683;SDS011;40582;53.100;6.686;2023-04-03T03:13:52;9.48;;;2.60;;
54683;SDS011;40582;53.100;6.686;2023-04-03T03:16:18;9.27;;;3.17;;
54683;SDS011;40582;53.100;6.686;2023-04-03T03:18:43;8.13;;;2.92;;
54683;SDS011;40582;53.100;6.686;2023-04-03T03:21:09;5.03;;;2.22;;
54683;SDS011;40582;53.100;6.686;2023-04-03T03:23:35;3.72;;;2.22;;
54683;SDS011;40582;53.100;6.686;2023-04-03T03:26:06;5.93;;;2.63;;
54683;SDS011;40582;53.100;6.686;2023-04-03T03:28:33;6.57;;;2.45;;
54683;SDS011;40582;53.100;6.686;2023-04-03T03:31:01;6.30;;;2.70;;
54683;SDS011;40582;53.100;6.686;2023-04-03T03:33:27;8.70;;;2.80;;
54683;SDS011;40582;53.100;6.686;2023-04-03T03:35:53;8.85;;;2.95;;
54683;SDS011;40582;53.100;6.686;2023-04-03T03:38:19;6.85;;;2.47;;
54683;SDS011;40582;53.100;6.686;2023-04-03T03:40:48;7.20;;;2.97;;
54683;SDS011;40582;53.100;6.686;2023-04-03T03:43:15;9.52;;;2.65;;
54683;SDS011;40582;53.100;6.686;2023-04-03T03:45:41;9.52;;;3.22;;
54683;SDS011;40582;53.100;6.686;2023-04-03T03:48:07;6.93;;;2.78;;
54683;SDS011;40582;53.100;6.686;2023-04-03T03:50:33;7.82;;;3.05;;
54683;SDS011;40582;53.100;6.686;2023-04-03T03:52:59;5.18;;;2.60;;
54683;SDS011;40582;53.100;6.686;2023-04-03T03:55:25;7.47;;;3.05;;
54683;SDS011;40582;53.100;6.686;2023-04-03T03:57:51;7.80;;;2.72;;
54683;SDS011;40582;53.100;6.686;2023-04-03T04:00:16;7.93;;;2.90;;
54683;SDS011;40582;53.100;6.686;2023-04-03T04:02:43;6.40;;;2.70;;
54683;SDS011;40582;53.100;6.686;2023-04-03T04:05:08;11.40;;;3.42;;
54683;SDS011;40582;53.100;6.686;2023-04-03T04:07:34;5.90;;;2.70;;
54683;SDS011;40582;53.100;6.686;2023-04-03T04:10:00;12.18;;;3.50;;
54683;SDS011;40582;53.100;6.686;2023-04-03T04:12:26;8.38;;;3.35;;
54683;SDS011;40582;53.100;6.686;2023-04-03T04:14:52;5.63;;;2.83;;
54683;SDS011;40582;53.100;6.686;2023-04-03T04:17:17;9.82;;;3.08;;
54683;SDS011;40582;53.100;6.686;2023-04-03T04:19:43;7.07;;;2.92;;
54683;SDS011;40582;53.100;6.686;2023-04-03T04:22:09;8.88;;;2.83;;
54683;SDS011;40582;53.100;6.686;2023-04-03T04:24:35;8.98;;;3.25;;
54683;SDS011;40582;53.100;6.686;2023-04-03T04:27:01;10.07;;;3.65;;
54683;SDS011;40582;53.100;6.686;2023-04-03T04:29:26;8.48;;;3.40;;
54683;SDS011;40582;53.100;6.686;2023-04-03T04:31:52;11.20;;;2.95;;
54683;SDS011;40582;53.100;6.686;2023-04-03T04:34:17;6.25;;;2.85;;
54683;SDS011;40582;53.100;6.686;2023-04-03T04:36:43;8.32;;;3.20;;
54683;SDS011;40582;53.100;6.686;2023-04-03T04:39:09;8.77;;;3.08;;
54683;SDS011;40582;53.100;6.686;2023-04-03T04:41:35;9.50;;;3.53;;
54683;SDS011;40582;53.100;6.686;2023-04-03T04:44:00;7.45;;;3.10;;
54683;SDS011;40582;53.100;6.686;2023-04-03T04:46:26;8.20;;;2.92;;
54683;SDS011;40582;53.100;6.686;2023-04-03T04:48:52;5.07;;;2.90;;
54683;SDS011;40582;53.100;6.686;2023-04-03T04:51:17;8.55;;;3.17;;
54683;SDS011;40582;53.100;6.686;2023-04-03T04:53:43;8.20;;;3.50;;
54683;SDS011;40582;53.100;6.686;2023-04-03T04:56:10;9.85;;;3.35;;
54683;SDS011;40582;53.100;6.686;2023-04-03T04:58:35;10.23;;;3.80;;
54683;SDS011;40582;53.100;6.686;2023-04-03T05:01:02;8.80;;;3.50;;
54683;SDS011;40582;53.100;6.686;2023-04-03T05:03:29;8.07;;;3.60;;
54683;SDS011;40582;53.100;6.686;2023-04-03T05:05:55;13.45;;;3.67;;
54683;SDS011;40582;53.100;6.686;2023-04-03T05:08:21;8.40;;;3.58;;
54683;SDS011;40582;53.100;6.686;2023-04-03T05:10:46;8.63;;;3.63;;
54683;SDS011;40582;53.100;6.686;2023-04-03T05:13:13;6.78;;;3.40;;
54683;SDS011;40582;53.100;6.686;2023-04-03T05:15:38;9.57;;;4.00;;
54683;SDS011;40582;53.100;6.686;2023-04-03T05:18:04;8.95;;;3.47;;
54683;SDS011;40582;53.100;6.686;2023-04-03T05:20:31;12.32;;;3.50;;
54683;SDS011;40582;53.100;6.686;2023-04-03T05:22:57;5.40;;;3.28;;
54683;SDS011;40582;53.100;6.686;2023-04-03T05:25:23;14.73;;;4.05;;
54683;SDS011;40582;53.100;6.686;2023-04-03T05:27:49;7.40;;;3.33;;
54683;SDS011;40582;53.100;6.686;2023-04-03T05:30:15;12.13;;;4.03;;
54683;SDS011;40582;53.100;6.686;2023-04-03T05:32:41;11.52;;;4.53;;
54683;SDS011;40582;53.100;6.686;2023-04-03T05:35:07;11.35;;;4.00;;
54683;SDS011;40582;53.100;6.686;2023-04-03T05:37:34;6.97;;;3.55;;
54683;SDS011;40582;53.100;6.686;2023-04-03T05:40:00;11.40;;;4.70;;
54683;SDS011;40582;53.100;6.686;2023-04-03T05:42:25;14.43;;;4.95;;
54683;SDS011;40582;53.100;6.686;2023-04-03T05:44:51;17.33;;;4.25;;
54683;SDS011;40582;53.100;6.686;2023-04-03T05:47:17;12.35;;;4.38;;
54683;SDS011;40582;53.100;6.686;2023-04-03T05:49:44;14.82;;;4.18;;
54683;SDS011;40582;53.100;6.686;2023-04-03T05:52:29;10.73;;;4.25;;
54683;SDS011;40582;53.100;6.686;2023-04-03T05:54:57;8.05;;;3.97;;
54683;SDS011;40582;53.100;6.686;2023-04-03T05:57:23;11.95;;;4.15;;
54683;SDS011;40582;53.100;6.686;2023-04-03T05:59:49;12.13;;;4.60;;
54683;SDS011;40582;53.100;6.686;2023-04-03T06:02:16;17.15;;;4.93;;
54683;SDS011;40582;53.100;6.686;2023-04-03T06:04:44;13.20;;;4.93;;
54683;SDS011;40582;53.100;6.686;2023-04-03T06:07:13;15.35;;;4.20;;
54683;SDS011;40582;53.100;6.686;2023-04-03T06:09:40;11.38;;;4.43;;
54683;SDS011;40582;53.100;6.686;2023-04-03T06:12:07;10.15;;;3.88;;
54683;SDS011;40582;53.100;6.686;2023-04-03T06:14:33;18.23;;;4.53;;
54683;SDS011;40582;53.100;6.686;2023-04-03T06:16:58;6.95;;;3.72;;
54683;SDS011;40582;53.100;6.686;2023-04-03T06:19:25;12.93;;;4.20;;
54683;SDS011;40582;53.100;6.686;2023-04-03T06:21:51;16.25;;;4.50;;
54683;SDS011;40582;53.100;6.686;2023-04-03T06:24:17;14.57;;;4.82;;
54683;SDS011;40582;53.100;6.686;2023-04-03T06:26:43;11.82;;;4.20;;
54683;SDS011;40582;53.100;6.686;2023-04-03T06:29:09;9.25;;;3.72;;
54683;SDS011;40582;53.100;6.686;2023-04-03T06:31:35;11.93;;;4.63;;
54683;SDS011;40582;53.100;6.686;2023-04-03T06:34:03;12.05;;;4.13;;
54683;SDS011;40582;53.100;6.686;2023-04-03T06:36:30;13.07;;;4.75;;
54683;SDS011;40582;53.100;6.686;2023-04-03T06:38:56;10.38;;;3.95;;
54683;SDS011;40582;53.100;6.686;2023-04-03T06:41:22;15.75;;;3.78;;
54683;SDS011;40582;53.100;6.686;2023-04-03T06:43:48;11.10;;;4.43;;
54683;SDS011;40582;53.100;6.686;2023-04-03T06:46:14;9.88;;;3.97;;
54683;SDS011;40582;53.100;6.686;2023-04-03T06:48:41;10.13;;;4.15;;
54683;SDS011;40582;53.100;6.686;2023-04-03T06:51:11;12.05;;;3.85;;
54683;SDS011;40582;53.100;6.686;2023-04-03T06:53:52;14.82;;;4.72;;
54683;SDS011;40582;53.100;6.686;2023-04-03T06:56:19;10.90;;;4.50;;
54683;SDS011;40582;53.100;6.686;2023-04-03T06:58:46;14.50;;;4.55;;
54683;SDS011;40582;53.100;6.686;2023-04-03T07:01:13;11.95;;;4.13;;
54683;SDS011;40582;53.100;6.686;2023-04-03T07:03:40;9.80;;;3.90;;
54683;SDS011;40582;53.100;6.686;2023-04-03T07:06:06;9.23;;;3.83;;
54683;SDS011;40582;53.100;6.686;2023-04-03T07:08:35;11.60;;;4.10;;
54683;SDS011;40582;53.100;6.686;2023-04-03T07:11:01;10.43;;;3.85;;
54683;SDS011;40582;53.100;6.686;2023-04-03T07:13:27;12.55;;;4.03;;
54683;SDS011;40582;53.100;6.686;2023-04-03T07:15:53;15.93;;;4.13;;
54683;SDS011;40582;53.100;6.686;2023-04-03T07:18:19;9.55;;;3.60;;
54683;SDS011;40582;53.100;6.686;2023-04-03T07:20:46;8.57;;;3.75;;
54683;SDS011;40582;53.100;6.686;2023-04-03T07:23:12;13.40;;;3.83;;
54683;SDS011;40582;53.100;6.686;2023-04-03T07:25:48;9.35;;;3.95;;
54683;SDS011;40582;53.100;6.686;2023-04-03T07:28:14;9.95;;;3.55;;
54683;SDS011;40582;53.100;6.686;2023-04-03T07:33:11;19.45;;;4.03;;
54683;SDS011;40582;53.100;6.686;2023-04-03T07:35:39;8.50;;;3.65;;
54683;SDS011;40582;53.100;6.686;2023-04-03T07:38:06;10.25;;;3.20;;
54683;SDS011;40582;53.100;6.686;2023-04-03T07:40:32;10.05;;;3.35;;
54683;SDS011;40582;53.100;6.686;2023-04-03T07:42:58;8.35;;;3.00;;
54683;SDS011;40582;53.100;6.686;2023-04-03T07:45:24;7.18;;;2.58;;
54683;SDS011;40582;53.100;6.686;2023-04-03T07:47:51;10.30;;;3.13;;
54683;SDS011;40582;53.100;6.686;2023-04-03T07:50:17;14.73;;;3.17;;
54683;SDS011;40582;53.100;6.686;2023-04-03T07:52:43;8.13;;;3.00;;
54683;SDS011;40582;53.100;6.686;2023-04-03T07:55:10;6.07;;;2.30;;
54683;SDS011;40582;53.100;6.686;2023-04-03T07:57:36;11.98;;;2.78;;
54683;SDS011;40582;53.100;6.686;2023-04-03T08:00:03;8.20;;;2.65;;
54683;SDS011;40582;53.100;6.686;2023-04-03T08:02:29;9.68;;;2.08;;
54683;SDS011;40582;53.100;6.686;2023-04-03T08:04:57;9.95;;;3.25;;
54683;SDS011;40582;53.100;6.686;2023-04-03T08:07:23;7.35;;;2.90;;
54683;SDS011;40582;53.100;6.686;2023-04-03T08:09:49;9.55;;;3.05;;
54683;SDS011;40582;53.100;6.686;2023-04-03T08:12:15;8.02;;;2.70;;
54683;SDS011;40582;53.100;6.686;2023-04-03T08:14:42;8.05;;;2.88;;
54683;SDS011;40582;53.100;6.686;2023-04-03T08:17:08;9.45;;;2.47;;
54683;SDS011;40582;53.100;6.686;2023-04-03T08:19:36;8.00;;;3.20;;
54683;SDS011;40582;53.100;6.686;2023-04-03T08:22:03;6.55;;;3.13;;
54683;SDS011;40582;53.100;6.686;2023-04-03T08:24:30;5.65;;;2.60;;
54683;SDS011;40582;53.100;6.686;2023-04-03T08:26:56;8.07;;;2.75;;
54683;SDS011;40582;53.100;6.686;2023-04-03T08:29:22;8.00;;;3.30;;
54683;SDS011;40582;53.100;6.686;2023-04-03T08:31:48;9.68;;;2.47;;
54683;SDS011;40582;53.100;6.686;2023-04-03T08:34:15;9.73;;;2.95;;
54683;SDS011;40582;53.100;6.686;2023-04-03T08:36:41;7.03;;;2.75;;
54683;SDS011;40582;53.100;6.686;2023-04-03T08:39:08;9.50;;;2.65;;
54683;SDS011;40582;53.100;6.686;2023-04-03T08:41:34;4.97;;;2.15;;
54683;SDS011;40582;53.100;6.686;2023-04-03T08:49:32;6.35;;;2.30;;
54683;SDS011;40582;53.100;6.686;2023-04-03T08:54:55;7.80;;;2.72;;
54683;SDS011;40582;53.100;6.686;2023-04-03T08:57:28;8.57;;;2.50;;
54683;SDS011;40582;53.100;6.686;2023-04-03T09:00:05;7.30;;;2.40;;
54683;SDS011;40582;53.100;6.686;2023-04-03T09:02:43;7.05;;;2.58;;
54683;SDS011;40582;53.100;6.686;2023-04-03T09:06:02;7.15;;;2.50;;
54683;SDS011;40582;53.100;6.686;2023-04-03T09:13:53;4.78;;;2.05;;
54683;SDS011;40582;53.100;6.686;2023-04-03T09:19:49;7.82;;;2.20;;
54683;SDS011;40582;53.100;6.686;2023-04-03T09:22:27;11.77;;;2.40;;
54683;SDS011;40582;53.100;6.686;2023-04-03T09:25:09;11.43;;;2.20;;
54683;SDS011;40582;53.100;6.686;2023-04-03T09:27:45;6.40;;;1.95;;
54683;SDS011;40582;53.100;6.686;2023-04-03T09:30:15;4.53;;;1.67;;
54683;SDS011;40582;53.100;6.686;2023-04-03T09:32:43;4.03;;;1.88;;
54683;SDS011;40582;53.100;6.686;2023-04-03T09:37:52;4.57;;;1.90;;
54683;SDS011;40582;53.100;6.686;2023-04-03T09:42:52;5.40;;;2.13;;
54683;SDS011;40582;53.100;6.686;2023-04-03T09:45:37;3.60;;;1.60;;
54683;SDS011;40582;53.100;6.686;2023-04-03T09:51:02;4.30;;;1.75;;
54683;SDS011;40582;53.100;6.686;2023-04-03T09:53:41;5.43;;;1.95;;
54683;SDS011;40582;53.100;6.686;2023-04-03T09:58:49;3.42;;;1.75;;
54683;SDS011;40582;53.100;6.686;2023-04-03T10:03:45;4.20;;;1.75;;
54683;SDS011;40582;53.100;6.686;2023-04-03T10:06:26;6.07;;;2.15;;
54683;SDS011;40582;53.100;6.686;2023-04-03T10:09:03;3.17;;;1.77;;
54683;SDS011;40582;53.100;6.686;2023-04-03T10:11:31;3.25;;;1.45;;
54683;SDS011;40582;53.100;6.686;2023-04-03T10:14:01;4.88;;;1.80;;
54683;SDS011;40582;53.100;6.686;2023-04-03T10:19:05;3.60;;;1.73;;
54683;SDS011;40582;53.100;6.686;2023-04-03T10:24:20;4.05;;;1.63;;
54683;SDS011;40582;53.100;6.686;2023-04-03T10:26:57;3.97;;;1.73;;
54683;SDS011;40582;53.100;6.686;2023-04-03T10:29:36;3.42;;;1.50;;
54683;SDS011;40582;53.100;6.686;2023-04-03T10:40:55;3.92;;;1.50;;
54683;SDS011;40582;53.100;6.686;2023-04-03T10:43:42;3.47;;;1.95;;
54683;SDS011;40582;53.100;6.686;2023-04-03T10:52:01;6.35;;;2.25;;
54683;SDS011;40582;53.100;6.686;2023-04-03T10:54:41;4.30;;;1.70;;
54683;SDS011;40582;53.100;6.686;2023-04-03T10:57:14;2.78;;;1.40;;
54683;SDS011;40582;53.100;6.686;2023-04-03T10:59:42;4.63;;;1.65;;
54683;SDS011;40582;53.100;6.686;2023-04-03T11:02:14;3.30;;;1.23;;
54683;SDS011;40582;53.100;6.686;2023-04-03T11:05:15;1.95;;;1.40;;
54683;SDS011;40582;53.100;6.686;2023-04-03T11:07:47;4.32;;;1.52;;
54683;SDS011;40582;53.100;6.686;2023-04-03T11:10:20;4.28;;;1.30;;
54683;SDS011;40582;53.100;6.686;2023-04-03T11:12:57;5.78;;;1.27;;
54683;SDS011;40582;53.100;6.686;2023-04-03T11:15:53;2.95;;;1.30;;
54683;SDS011;40582;53.100;6.686;2023-04-03T11:18:22;3.28;;;1.20;;
54683;SDS011;40582;53.100;6.686;2023-04-03T11:21:03;6.50;;;1.42;;
54683;SDS011;40582;53.100;6.686;2023-04-03T11:23:39;3.45;;;1.63;;
54683;SDS011;40582;53.100;6.686;2023-04-03T11:26:10;3.25;;;1.40;;
54683;SDS011;40582;53.100;6.686;2023-04-03T11:28:37;7.10;;;1.60;;
54683;SDS011;40582;53.100;6.686;2023-04-03T11:38:49;5.43;;;1.75;;
54683;SDS011;40582;53.100;6.686;2023-04-03T11:41:29;2.25;;;1.33;;
54683;SDS011;40582;53.100;6.686;2023-04-03T11:44:00;3.15;;;1.35;;
54683;SDS011;40582;53.100;6.686;2023-04-03T11:46:48;2.78;;;1.42;;
54683;SDS011;40582;53.100;6.686;2023-04-03T12:16:21;6.40;;;1.70;;
54683;SDS011;40582;53.100;6.686;2023-04-03T12:18:55;2.10;;;1.48;;
54683;SDS011;40582;53.100;6.686;2023-04-03T12:26:44;2.65;;;1.50;;
54683;SDS011;40582;53.100;6.686;2023-04-03T12:37:23;6.15;;;1.98;;
54683;SDS011;40582;53.100;6.686;2023-04-03T12:45:38;4.35;;;1.83;;
54683;SDS011;40582;53.100;6.686;2023-04-03T12:47:45;4.65;;;1.58;;
54683;SDS011;40582;53.100;6.686;2023-04-03T12:50:31;4.10;;;1.52;;
54683;SDS011;40582;53.100;6.686;2023-04-03T12:53:06;2.85;;;1.73;;
54683;SDS011;40582;53.100;6.686;2023-04-03T12:55:56;3.78;;;1.70;;
54683;SDS011;40582;53.100;6.686;2023-04-03T12:58:41;8.27;;;1.70;;
54683;SDS011;40582;53.100;6.686;2023-04-03T13:01:14;2.97;;;1.60;;
54683;SDS011;40582;53.100;6.686;2023-04-03T13:03:49;4.28;;;1.63;;
54683;SDS011;40582;53.100;6.686;2023-04-03T13:06:24;6.38;;;2.08;;
54683;SDS011;40582;53.100;6.686;2023-04-03T13:08:56;6.68;;;1.73;;
54683;SDS011;40582;53.100;6.686;2023-04-03T13:11:30;5.03;;;1.70;;
54683;SDS011;40582;53.100;6.686;2023-04-03T13:14:02;3.78;;;1.85;;
54683;SDS011;40582;53.100;6.686;2023-04-03T13:16:31;4.50;;;1.48;;
54683;SDS011;40582;53.100;6.686;2023-04-03T13:18:57;2.55;;;1.50;;
54683;SDS011;40582;53.100;6.686;2023-04-03T13:21:24;6.05;;;1.88;;
54683;SDS011;40582;53.100;6.686;2023-04-03T13:23:54;4.07;;;1.85;;
54683;SDS011;40582;53.100;6.686;2023-04-03T13:26:23;2.75;;;1.13;;
54683;SDS011;40582;53.100;6.686;2023-04-03T13:28:52;3.17;;;1.63;;
54683;SDS011;40582;53.100;6.686;2023-04-03T13:31:31;3.55;;;1.50;;
54683;SDS011;40582;53.100;6.686;2023-04-03T13:34:07;5.72;;;2.00;;
54683;SDS011;40582;53.100;6.686;2023-04-03T13:36:44;3.28;;;1.83;;
54683;SDS011;40582;53.100;6.686;2023-04-03T13:39:22;4.55;;;1.85;;
54683;SDS011;40582;53.100;6.686;2023-04-03T13:41:55;3.55;;;1.70;;
54683;SDS011;40582;53.100;6.686;2023-04-03T13:46:48;3.55;;;1.88;;
54683;SDS011;40582;53.100;6.686;2023-04-03T13:49:20;3.58;;;1.65;;
54683;SDS011;40582;53.100;6.686;2023-04-03T13:51:47;5.28;;;2.03;;
54683;SDS011;40582;53.100;6.686;2023-04-03T13:54:18;5.20;;;1.80;;
54683;SDS011;40582;53.100;6.686;2023-04-03T13:56:52;3.47;;;1.60;;
54683;SDS011;40582;53.100;6.686;2023-04-03T13:59:21;5.75;;;1.58;;
54683;SDS011;40582;53.100;6.686;2023-04-03T14:04:29;3.97;;;1.70;;
54683;SDS011;40582;53.100;6.686;2023-04-03T14:06:57;2.97;;;1.48;;
54683;SDS011;40582;53.100;6.686;2023-04-03T14:09:24;3.15;;;1.50;;
54683;SDS011;40582;53.100;6.686;2023-04-03T14:11:53;4.43;;;1.80;;
54683;SDS011;40582;53.100;6.686;2023-04-03T14:14:23;2.75;;;1.48;;
54683;SDS011;40582;53.100;6.686;2023-04-03T14:16:56;3.10;;;1.30;;
54683;SDS011;40582;53.100;6.686;2023-04-03T14:19:26;2.58;;;1.52;;
54683;SDS011;40582;53.100;6.686;2023-04-03T14:21:55;4.20;;;1.60;;
54683;SDS011;40582;53.100;6.686;2023-04-03T14:24:21;1.98;;;1.40;;
54683;SDS011;40582;53.100;6.686;2023-04-03T14:26:49;3.80;;;1.50;;
54683;SDS011;40582;53.100;6.686;2023-04-03T14:29:17;5.40;;;1.60;;
54683;SDS011;40582;53.100;6.686;2023-04-03T14:31:43;4.25;;;1.80;;
54683;SDS011;40582;53.100;6.686;2023-04-03T14:34:10;2.17;;;1.35;;
54683;SDS011;40582;53.100;6.686;2023-04-03T14:36:37;2.50;;;1.20;;
54683;SDS011;40582;53.100;6.686;2023-04-03T14:39:04;2.97;;;1.20;;
54683;SDS011;40582;53.100;6.686;2023-04-03T14:41:30;4.55;;;1.00;;
54683;SDS011;40582;53.100;6.686;2023-04-03T14:43:56;3.28;;;1.40;;
54683;SDS011;40582;53.100;6.686;2023-04-03T14:46:24;3.75;;;1.20;;
54683;SDS011;40582;53.100;6.686;2023-04-03T14:48:55;1.73;;;1.10;;
54683;SDS011;40582;53.100;6.686;2023-04-03T14:51:21;4.55;;;1.40;;
54683;SDS011;40582;53.100;6.686;2023-04-03T14:53:47;3.05;;;1.20;;
54683;SDS011;40582;53.100;6.686;2023-04-03T14:56:16;4.00;;;1.23;;
54683;SDS011;40582;53.100;6.686;2023-04-03T14:58:44;4.10;;;1.67;;
54683;SDS011;40582;53.100;6.686;2023-04-03T15:01:14;2.28;;;1.20;;
54683;SDS011;40582;53.100;6.686;2023-04-03T15:03:40;5.72;;;1.50;;
54683;SDS011;40582;53.100;6.686;2023-04-03T15:06:05;4.50;;;1.30;;
54683;SDS011;40582;53.100;6.686;2023-04-03T15:08:31;4.18;;;1.65;;
54683;SDS011;40582;53.100;6.686;2023-04-03T15:10:57;3.90;;;1.42;;
54683;SDS011;40582;53.100;6.686;2023-04-03T15:13:24;2.78;;;1.45;;
54683;SDS011;40582;53.100;6.686;2023-04-03T15:15:50;2.88;;;1.67;;
54683;SDS011;40582;53.100;6.686;2023-04-03T15:18:18;3.13;;;1.50;;
54683;SDS011;40582;53.100;6.686;2023-04-03T15:20:47;3.47;;;1.40;;
54683;SDS011;40582;53.100;6.686;2023-04-03T15:23:14;3.78;;;1.65;;
54683;SDS011;40582;53.100;6.686;2023-04-03T15:25:44;4.38;;;2.47;;
54683;SDS011;40582;53.100;6.686;2023-04-03T15:28:15;7.97;;;3.63;;
54683;SDS011;40582;53.100;6.686;2023-04-03T15:30:53;4.35;;;2.88;;
54683;SDS011;40582;53.100;6.686;2023-04-03T15:33:19;4.22;;;1.88;;
54683;SDS011;40582;53.100;6.686;2023-04-03T15:35:45;4.60;;;2.28;;
54683;SDS011;40582;53.100;6.686;2023-04-03T15:38:11;4.38;;;2.88;;
54683;SDS011;40582;53.100;6.686;2023-04-03T15:40:37;3.75;;;2.00;;
54683;SDS011;40582;53.100;6.686;2023-04-03T15:43:04;4.70;;;2.05;;
54683;SDS011;40582;53.100;6.686;2023-04-03T15:45:31;6.43;;;2.67;;
54683;SDS011;40582;53.100;6.686;2023-04-03T15:47:58;6.55;;;2.63;;
54683;SDS011;40582;53.100;6.686;2023-04-03T15:50:24;3.10;;;1.67;;
54683;SDS011;40582;53.100;6.686;2023-04-03T15:52:50;3.35;;;1.60;;
54683;SDS011;40582;53.100;6.686;2023-04-03T15:55:23;5.35;;;1.48;;
54683;SDS011;40582;53.100;6.686;2023-04-03T15:57:53;3.63;;;1.60;;
54683;SDS011;40582;53.100;6.686;2023-04-03T16:00:19;2.30;;;1.13;;
54683;SDS011;40582;53.100;6.686;2023-04-03T16:02:46;1.58;;;1.30;;
54683;SDS011;40582;53.100;6.686;2023-04-03T16:05:15;6.28;;;2.10;;
54683;SDS011;40582;53.100;6.686;2023-04-03T16:07:42;5.90;;;3.40;;
54683;SDS011;40582;53.100;6.686;2023-04-03T16:10:08;4.40;;;1.45;;
54683;SDS011;40582;53.100;6.686;2023-04-03T16:12:35;2.08;;;1.38;;
54683;SDS011;40582;53.100;6.686;2023-04-03T16:15:02;3.00;;;1.58;;
54683;SDS011;40582;53.100;6.686;2023-04-03T16:17:28;3.58;;;1.60;;
54683;SDS011;40582;53.100;6.686;2023-04-03T16:19:55;4.50;;;1.70;;
54683;SDS011;40582;53.100;6.686;2023-04-03T16:22:21;3.80;;;1.60;;
54683;SDS011;40582;53.100;6.686;2023-04-03T16:24:49;2.50;;;1.67;;
54683;SDS011;40582;53.100;6.686;2023-04-03T16:27:15;3.08;;;1.25;;
54683;SDS011;40582;53.100;6.686;2023-04-03T16:29:41;4.07;;;1.48;;
54683;SDS011;40582;53.100;6.686;2023-04-03T16:32:07;2.95;;;1.25;;
54683;SDS011;40582;53.100;6.686;2023-04-03T16:34:34;4.03;;;1.52;;
54683;SDS011;40582;53.100;6.686;2023-04-03T16:36:59;3.38;;;1.50;;
54683;SDS011;40582;53.100;6.686;2023-04-03T16:39:25;3.47;;;1.30;;
54683;SDS011;40582;53.100;6.686;2023-04-03T16:41:51;3.38;;;1.38;;
54683;SDS011;40582;53.100;6.686;2023-04-03T16:44:17;3.08;;;1.55;;
54683;SDS011;40582;53.100;6.686;2023-04-03T16:46:43;3.10;;;1.40;;
54683;SDS011;40582;53.100;6.686;2023-04-03T16:49:09;4.93;;;1.45;;
54683;SDS011;40582;53.100;6.686;2023-04-03T16:51:35;4.68;;;1.35;;